Time;durP1;ratioP1;P1;durP2;ratioP2;P2;SDS_P1;SDS_P2;PMS_P1;PMS_P2;Temp;Humidity;BMP_temperature;BMP_pressure;BME280_temperature;BME280_humidity;BME280_pressure;Samples;Min_cycle;Max_cycle;Signal;HPM_P1;HPM_P2
2024/02/02 00:02:25;;;;;;;0.85;0.47;;;;;;;28.92;27.93;101113.50;7390855;19;20038;-50
2024/02/02 00:04:51;;;;;;;0.35;0.35;;;;;;;28.89;27.92;101111.81;7390086;19;20018;-50
2024/02/02 00:07:17;;;;;;;1.27;0.45;;;;;;;28.66;28.46;101100.31;7391406;19;20021;-50
2024/02/02 00:09:47;;;;;;;7.93;1.38;;;;;;;28.30;29.17;101100.47;7391498;19;20014;-50
2024/02/02 00:12:13;;;;;;;5.82;1.42;;;;;;;27.48;29.94;101100.91;7401192;19;20041;-51
2024/02/02 00:14:40;;;;;;;4.28;0.43;;;;;;;28.12;29.43;101095.81;7398639;19;20437;-52
2024/02/02 00:17:06;;;;;;;4.95;0.60;;;;;;;28.86;28.62;101098.59;7398075;19;20376;-51
2024/02/02 00:19:32;;;;;;;0.70;0.57;;;;;;;28.62;28.76;101079.09;7402923;19;20065;-51
2024/02/02 00:21:58;;;;;;;3.30;0.73;;;;;;;29.22;28.45;101084.81;7401588;19;20015;-51
2024/02/02 00:24:24;;;;;;;0.10;0.10;;;;;;;28.75;28.95;101082.56;7396579;19;20014;-51
2024/02/02 00:26:50;;;;;;;8.32;0.90;;;;;;;28.60;28.59;101081.78;7396521;19;20048;-51
2024/02/02 00:29:17;;;;;;;0.52;0.35;;;;;;;28.59;29.23;101065.94;7399757;19;20023;-50
2024/02/02 00:31:43;;;;;;;11.35;0.50;;;;;;;28.66;29.02;101062.28;7397703;19;20046;-51
2024/02/02 00:34:09;;;;;;;0.45;0.40;;;;;;;28.62;29.02;101059.03;7402272;19;20454;-51
2024/02/02 00:36:35;;;;;;;6.13;1.27;;;;;;;28.79;29.29;101059.22;7395457;19;20086;-51
2024/02/02 00:39:01;;;;;;;0.25;0.25;;;;;;;28.37;29.39;101053.09;7396825;19;20018;-51
2024/02/02 00:41:27;;;;;;;18.85;0.90;;;;;;;28.42;29.80;101054.97;7396410;19;20018;-51
2024/02/02 00:43:53;;;;;;;0.15;0.15;;;;;;;28.44;29.65;101046.56;7400404;19;20018;-51
2024/02/02 00:46:20;;;;;;;1.35;0.38;;;;;;;28.43;30.18;101034.38;7397514;19;20010;-52
2024/02/02 00:48:46;;;;;;;0.75;0.32;;;;;;;28.51;30.22;101040.09;7400723;19;20011;-51
2024/02/02 00:51:12;;;;;;;0.10;0.10;;;;;;;28.73;29.87;101032.84;7396531;19;20019;-51
2024/02/02 00:53:38;;;;;;;0.20;0.10;;;;;;;28.68;29.91;101031.69;7400918;19;20329;-51
2024/02/02 00:56:05;;;;;;;0.20;0.20;;;;;;;28.66;30.09;101022.91;7394347;19;20019;-51
2024/02/02 00:58:31;;;;;;;3.00;0.47;;;;;;;28.84;29.96;101015.25;7396779;19;20346;-51
2024/02/02 01:00:57;;;;;;;0.28;0.28;;;;;;;28.83;30.00;101017.34;7396330;19;20040;-51
2024/02/02 01:03:23;;;;;;;1.17;0.30;;;;;;;28.50;30.53;101012.78;7399443;19;20011;-51
2024/02/02 01:05:49;;;;;;;0.20;0.20;;;;;;;28.46;30.29;101004.53;7396708;19;20023;-51
2024/02/02 01:08:16;;;;;;;0.43;0.43;;;;;;;27.42;31.79;100994.38;7394692;19;20011;-51
2024/02/02 01:10:42;;;;;;;2.83;0.90;;;;;;;28.19;31.43;100988.31;7396282;19;20018;-51
2024/02/02 01:13:08;;;;;;;0.90;0.65;;;;;;;29.64;29.87;100990.31;7397038;19;20018;-51
2024/02/02 01:15:34;;;;;;;0.45;0.10;;;;;;;30.59;28.85;100976.44;7398236;19;20045;-51
2024/02/02 01:18:02;;;;;;;0.20;0.20;;;;;;;30.95;29.12;100979.53;7397811;19;20014;-51
2024/02/02 01:20:28;;;;;;;0.73;0.55;;;;;;;31.25;28.21;100969.78;7394397;19;20333;-51
2024/02/02 01:22:54;;;;;;;3.83;0.55;;;;;;;31.83;28.36;100963.06;7395904;19;20007;-51
2024/02/02 01:25:21;;;;;;;0.10;0.10;;;;;;;31.83;28.04;100959.41;7397540;19;20020;-51
2024/02/02 01:27:47;;;;;;;0.10;0.10;;;;;;;31.74;28.08;100963.00;7395589;19;20459;-50
2024/02/02 01:30:13;;;;;;;0.57;0.47;;;;;;;31.67;28.14;100960.97;7399994;19;20010;-51
2024/02/02 01:32:39;;;;;;;0.10;0.10;;;;;;;31.75;28.30;100962.38;7399313;19;20034;-51
2024/02/02 01:35:06;;;;;;;13.77;0.30;;;;;;;32.03;27.99;100956.03;7396705;19;20017;-50
2024/02/02 01:37:33;;;;;;;8.02;0.60;;;;;;;32.04;27.66;100959.69;7396674;19;20010;-51
2024/02/02 01:39:59;;;;;;;0.10;0.10;;;;;;;32.16;27.74;100955.63;7398299;19;20006;-51
2024/02/02 01:42:25;;;;;;;0.10;0.10;;;;;;;32.21;27.38;100950.94;7397708;19;20007;-50
2024/02/02 01:44:51;;;;;;;0.55;0.28;;;;;;;32.29;28.06;100954.47;7396193;19;20466;-50
2024/02/02 01:47:18;;;;;;;0.13;0.13;;;;;;;32.36;27.71;100962.22;7394814;19;20340;-51
2024/02/02 01:49:44;;;;;;;0.38;0.28;;;;;;;32.42;27.42;100962.66;7392569;19;20027;-51
2024/02/02 01:52:10;;;;;;;0.80;0.38;;;;;;;32.34;27.93;100959.16;7394182;19;20010;-50
2024/02/02 01:54:36;;;;;;;0.13;0.13;;;;;;;32.00;28.23;100968.00;7395985;19;20011;-52
2024/02/02 01:57:02;;;;;;;0.38;0.20;;;;;;;32.39;27.91;100975.44;7393301;19;20014;-51
2024/02/02 01:59:29;;;;;;;0.20;0.10;;;;;;;32.31;27.81;100971.16;7394785;19;20547;-51
2024/02/02 02:01:56;;;;;;;5.55;0.43;;;;;;;32.37;27.92;100963.75;7393302;19;20015;-51
2024/02/02 02:04:23;;;;;;;1.15;0.35;;;;;;;32.54;27.94;100957.13;7395050;19;20090;-51
2024/02/02 02:06:49;;;;;;;0.30;0.30;;;;;;;31.83;28.13;100959.41;7394272;19;20481;-51
2024/02/02 02:09:15;;;;;;;0.10;0.10;;;;;;;31.61;28.24;100940.31;7395253;19;20014;-51
2024/02/02 02:11:43;;;;;;;0.38;0.10;;;;;;;31.54;28.51;100939.06;7394791;19;20015;-51
2024/02/02 02:14:09;;;;;;;0.10;0.10;;;;;;;32.40;28.10;100933.69;7394625;19;20017;-51
2024/02/02 02:16:35;;;;;;;0.13;0.10;;;;;;;31.99;28.06;100934.75;7392921;19;20641;-51
2024/02/02 02:19:02;;;;;;;0.20;0.10;;;;;;;31.76;28.40;100951.63;7397680;19;20471;-51
2024/02/02 02:21:28;;;;;;;0.10;0.00;;;;;;;31.38;28.38;100947.13;7393764;19;20032;-51
2024/02/02 02:23:55;;;;;;;0.10;0.10;;;;;;;31.38;28.58;100946.41;7393707;19;20014;-51
2024/02/02 02:26:22;;;;;;;0.20;0.20;;;;;;;31.23;28.97;100949.47;7397979;19;20011;-51
2024/02/02 02:28:48;;;;;;;0.20;0.10;;;;;;;31.14;28.74;100945.16;7393020;19;20021;-51
2024/02/02 02:31:15;;;;;;;0.10;0.10;;;;;;;32.01;28.38;100937.84;7393920;19;20046;-51
2024/02/02 02:33:43;;;;;;;0.50;0.50;;;;;;;32.33;27.95;100930.94;7392134;19;20355;-51
2024/02/02 02:36:12;;;;;;;1.50;0.38;;;;;;;32.57;27.55;100936.47;7395230;19;20459;-51
2024/02/02 02:38:38;;;;;;;0.10;0.10;;;;;;;32.54;27.31;100934.81;7393883;19;20010;-51
2024/02/02 02:41:05;;;;;;;0.22;0.20;;;;;;;32.92;27.17;100943.47;7393689;19;20015;-51
2024/02/02 02:43:31;;;;;;;0.20;0.10;;;;;;;32.81;27.40;100944.09;7392451;19;20017;-51
2024/02/02 02:45:57;;;;;;;0.30;0.30;;;;;;;32.86;27.61;100950.94;7392495;19;20010;-51
2024/02/02 02:48:23;;;;;;;0.10;0.10;;;;;;;32.77;27.30;100943.78;7395598;19;20503;-51
2024/02/02 02:50:50;;;;;;;0.10;0.00;;;;;;;32.65;27.28;100945.75;7392404;19;20043;-51
2024/02/02 02:53:16;;;;;;;0.10;0.10;;;;;;;32.88;27.14;100943.19;7391752;19;20018;-51
2024/02/02 02:55:42;;;;;;;0.10;0.10;;;;;;;33.11;27.03;100944.88;7391936;19;20010;-51
2024/02/02 02:58:09;;;;;;;0.20;0.10;;;;;;;33.10;27.29;100934.69;7392774;19;20011;-52
2024/02/02 03:00:35;;;;;;;0.10;0.10;;;;;;;33.20;26.63;100932.56;7396898;19;20013;-51
2024/02/02 03:03:01;;;;;;;0.10;0.10;;;;;;;33.05;27.04;100939.41;7393425;19;20018;-50
2024/02/02 03:05:28;;;;;;;0.20;0.20;;;;;;;32.92;26.76;100926.16;7391535;19;20405;-50
2024/02/02 03:07:55;;;;;;;0.47;0.22;;;;;;;32.90;26.59;100928.91;7393272;19;20080;-50
2024/02/02 03:10:25;;;;;;;0.35;0.10;;;;;;;33.28;26.23;100928.16;7392416;19;20006;-50
2024/02/02 03:12:52;;;;;;;0.10;0.10;;;;;;;33.60;25.84;100923.97;7397263;19;20475;-51
2024/02/02 03:15:19;;;;;;;0.52;0.40;;;;;;;33.44;26.11;100922.81;7393242;19;20031;-51
2024/02/02 03:17:46;;;;;;;0.10;0.10;;;;;;;33.49;26.33;100922.47;7394225;19;20014;-50
2024/02/02 03:20:12;;;;;;;0.10;0.00;;;;;;;33.64;26.40;100921.38;7392077;19;20015;-51
2024/02/02 03:22:38;;;;;;;0.10;0.10;;;;;;;33.84;26.13;100914.16;7391126;19;20011;-50
2024/02/02 03:25:05;;;;;;;0.10;0.00;;;;;;;33.79;26.20;100905.81;7395865;19;20519;-51
2024/02/02 03:27:32;;;;;;;0.30;0.22;;;;;;;33.79;26.34;100912.34;7392261;19;20018;-51
2024/02/02 03:29:58;;;;;;;0.28;0.17;;;;;;;33.68;25.88;100906.47;7395968;19;20372;-51
2024/02/02 03:32:24;;;;;;;0.30;0.30;;;;;;;33.60;26.01;100898.75;7391109;19;20010;-51
2024/02/02 03:34:50;;;;;;;0.43;0.43;;;;;;;33.58;25.89;100900.72;7389017;19;20011;-51
2024/02/02 03:37:18;;;;;;;0.20;0.20;;;;;;;33.24;25.96;100892.44;7395582;19;20013;-51
2024/02/02 03:39:48;;;;;;;0.20;0.20;;;;;;;32.98;26.13;100899.13;7390373;19;20460;-51
2024/02/02 03:42:14;;;;;;;0.10;0.10;;;;;;;33.15;26.07;100887.44;7391953;19;20066;-51
2024/02/02 03:44:40;;;;;;;0.30;0.30;;;;;;;33.16;26.11;100897.63;7394462;19;20022;-51
2024/02/02 03:47:07;;;;;;;0.22;0.22;;;;;;;33.13;25.90;100887.28;7403079;19;20038;-51
2024/02/02 03:49:34;;;;;;;0.10;0.10;;;;;;;33.13;26.03;100890.16;7401573;19;20006;-51
2024/02/02 03:52:00;;;;;;;1.08;0.20;;;;;;;33.07;25.74;100883.97;7398815;19;20504;-51
2024/02/02 03:54:27;;;;;;;0.20;0.10;;;;;;;33.08;25.64;100871.03;7402627;19;20010;-51
2024/02/02 03:56:54;;;;;;;0.47;0.43;;;;;;;32.92;25.87;100884.25;7396553;19;20014;-51
2024/02/02 03:59:20;;;;;;;0.15;0.10;;;;;;;32.92;25.77;100885.75;7402419;19;20014;-51
2024/02/02 04:01:46;;;;;;;0.22;0.22;;;;;;;33.13;25.59;100876.50;7398740;19;20013;-51
2024/02/02 04:04:12;;;;;;;0.10;0.10;;;;;;;33.28;25.80;100878.28;7399012;19;20149;-52
2024/02/02 04:06:38;;;;;;;0.10;0.10;;;;;;;33.35;26.05;100875.22;7398118;19;20026;-51
2024/02/02 04:09:05;;;;;;;0.10;0.10;;;;;;;32.67;26.61;100876.66;7398194;19;20467;-51
2024/02/02 04:11:31;;;;;;;0.10;0.10;;;;;;;33.24;26.15;100869.34;7403039;19;20352;-51
2024/02/02 04:13:57;;;;;;;0.40;0.40;;;;;;;32.97;26.43;100868.72;7398640;19;20022;-51
2024/02/02 04:16:23;;;;;;;0.10;0.05;;;;;;;32.80;26.71;100867.53;7398029;19;20038;-51
2024/02/02 04:18:49;;;;;;;0.20;0.20;;;;;;;32.92;27.03;100872.72;7401471;19;20006;-51
2024/02/02 04:21:16;;;;;;;0.43;0.20;;;;;;;32.96;26.86;100855.69;7399561;19;20480;-51
2024/02/02 04:23:42;;;;;;;0.10;0.10;;;;;;;33.06;26.88;100859.34;7398634;19;20078;-50
2024/02/02 04:26:08;;;;;;;0.10;0.10;;;;;;;32.96;26.71;100867.22;7398273;19;20038;-51
2024/02/02 04:28:34;;;;;;;0.95;0.10;;;;;;;33.13;26.74;100864.94;7398740;19;20070;-51
2024/02/02 04:31:01;;;;;;;0.10;0.10;;;;;;;33.12;27.02;100851.09;7397559;19;20078;-51
2024/02/02 04:33:27;;;;;;;0.20;0.20;;;;;;;33.33;26.86;100854.13;7399354;19;20021;-50
2024/02/02 04:35:53;;;;;;;0.10;0.10;;;;;;;33.02;26.85;100847.50;7396278;19;20099;-51
2024/02/02 04:38:19;;;;;;;0.10;0.10;;;;;;;32.94;27.29;100841.09;7397677;19;20336;-51
2024/02/02 04:40:46;;;;;;;0.32;0.10;;;;;;;32.88;27.78;100835.63;7398209;19;20018;-52
2024/02/02 04:43:12;;;;;;;0.10;0.00;;;;;;;32.32;27.90;100831.38;7396982;19;20032;-51
2024/02/02 04:45:39;;;;;;;0.10;0.00;;;;;;;32.85;27.39;100825.31;7398707;19;20019;-52
2024/02/02 04:48:05;;;;;;;0.10;0.10;;;;;;;33.12;27.68;100822.22;7399155;19;20029;-51
2024/02/02 04:50:31;;;;;;;0.10;0.10;;;;;;;32.73;27.79;100824.41;7396963;19;20014;-51
2024/02/02 04:52:58;;;;;;;0.10;0.00;;;;;;;31.53;28.73;100819.50;7396816;19;20038;-51
2024/02/02 04:55:24;;;;;;;0.20;0.10;;;;;;;30.79;29.27;100822.03;7394883;19;20044;-51
2024/02/02 04:57:50;;;;;;;1.23;0.08;;;;;;;30.66;29.42;100820.28;7399305;19;20021;-51
2024/02/02 05:00:17;;;;;;;0.10;0.10;;;;;;;30.46;29.08;100818.59;7397006;19;20038;-50
2024/02/02 05:02:43;;;;;;;0.10;0.10;;;;;;;30.36;29.24;100814.91;7401506;19;20037;-50
2024/02/02 05:05:09;;;;;;;0.15;0.15;;;;;;;30.35;29.26;100813.34;7395766;19;20074;-50
2024/02/02 05:07:35;;;;;;;0.10;0.10;;;;;;;30.23;29.85;100818.06;7396170;19;20121;-50
2024/02/02 05:10:04;;;;;;;0.10;0.03;;;;;;;30.28;29.84;100822.78;7398470;19;20015;-51
2024/02/02 05:12:30;;;;;;;0.50;0.30;;;;;;;30.30;29.65;100820.13;7396927;19;20014;-50
2024/02/02 05:14:56;;;;;;;0.10;0.00;;;;;;;30.58;29.80;100811.75;7396662;19;20396;-51
2024/02/02 05:17:22;;;;;;;0.20;0.20;;;;;;;30.60;29.53;100816.91;7396627;19;20014;-51
2024/02/02 05:19:49;;;;;;;0.03;0.00;;;;;;;30.65;29.72;100819.53;7394552;19;20021;-51
2024/02/02 05:22:15;;;;;;;0.10;0.10;;;;;;;29.95;30.09;100816.44;7398461;19;20013;-51
2024/02/02 05:24:42;;;;;;;0.10;0.10;;;;;;;28.92;30.83;100818.84;7396587;19;20018;-51
2024/02/02 05:27:08;;;;;;;0.10;0.00;;;;;;;28.87;31.47;100816.22;7396746;19;20031;-51
2024/02/02 05:29:34;;;;;;;0.10;0.10;;;;;;;28.91;31.61;100825.19;7396695;19;20467;-51
2024/02/02 05:32:00;;;;;;;0.10;0.10;;;;;;;28.91;31.78;100825.91;7394734;19;20374;-51
2024/02/02 05:34:27;;;;;;;0.10;0.10;;;;;;;28.96;31.86;100830.69;7396502;19;20048;-51
2024/02/02 05:36:53;;;;;;;0.10;0.00;;;;;;;29.00;31.90;100824.56;7393545;19;20018;-51
2024/02/02 05:39:19;;;;;;;0.10;0.00;;;;;;;29.14;31.50;100832.31;7396242;19;20670;-51
2024/02/02 05:41:45;;;;;;;0.20;0.20;;;;;;;29.35;32.19;100823.41;7395188;19;20010;-51
2024/02/02 05:44:11;;;;;;;0.32;0.10;;;;;;;30.39;30.88;100813.69;7395342;19;20017;-51
2024/02/02 05:46:37;;;;;;;0.10;0.10;;;;;;;29.42;32.17;100821.81;7398979;19;20447;-51
2024/02/02 05:49:03;;;;;;;0.10;0.00;;;;;;;29.46;31.96;100822.16;7398388;19;20007;-51
2024/02/02 05:51:29;;;;;;;0.10;0.00;;;;;;;29.39;31.98;100818.00;7395270;19;20018;-51
2024/02/02 05:53:56;;;;;;;0.10;0.00;;;;;;;28.51;32.77;100837.34;7395050;19;20467;-51
2024/02/02 05:56:22;;;;;;;0.10;0.10;;;;;;;28.50;32.92;100838.66;7392955;19;20019;-51
2024/02/02 05:58:48;;;;;;;0.10;0.10;;;;;;;28.60;33.40;100829.50;7397745;19;20010;-51
2024/02/02 06:01:14;;;;;;;0.10;0.00;;;;;;;28.64;33.20;100818.41;7394486;19;20015;-51
2024/02/02 06:03:40;;;;;;;0.30;0.10;;;;;;;29.03;32.93;100823.38;7394343;19;20599;-51
2024/02/02 06:06:06;;;;;;;0.10;0.00;;;;;;;29.84;32.04;100828.41;7394211;19;20006;-51
2024/02/02 06:08:32;;;;;;;0.10;0.00;;;;;;;28.61;33.91;100822.44;7394231;19;20074;-51
2024/02/02 06:10:59;;;;;;;0.10;0.00;;;;;;;28.75;33.67;100826.56;7397742;19;20027;-51
2024/02/02 06:13:25;;;;;;;0.10;0.10;;;;;;;28.13;33.83;100828.06;7393736;19;20070;-51
2024/02/02 06:15:51;;;;;;;0.65;0.45;;;;;;;27.51;34.17;100820.06;7392815;19;20022;-52
2024/02/02 06:18:19;;;;;;;0.10;0.10;;;;;;;27.80;33.98;100817.78;7396109;19;20040;-51
2024/02/02 06:20:45;;;;;;;0.20;0.10;;;;;;;28.52;33.66;100818.78;7393639;19;20034;-51
2024/02/02 06:23:12;;;;;;;0.10;0.10;;;;;;;27.65;34.49;100817.78;7396879;19;20481;-51
2024/02/02 06:25:38;;;;;;;1.90;0.50;;;;;;;29.01;33.33;100812.50;7396227;19;20467;-51
2024/02/02 06:28:05;;;;;;;0.10;0.10;;;;;;;28.56;33.64;100804.09;7394006;19;20463;-51
2024/02/02 06:30:31;;;;;;;0.10;0.00;;;;;;;30.14;32.29;100792.88;7398430;19;20014;-51
2024/02/02 06:32:59;;;;;;;0.10;0.00;;;;;;;28.77;33.18;100795.97;7394571;19;20496;-51
2024/02/02 06:35:27;;;;;;;0.17;0.17;;;;;;;28.36;33.96;100813.69;7393160;19;20481;-51
2024/02/02 06:37:54;;;;;;;0.28;0.10;;;;;;;28.55;33.84;100802.53;7393525;19;20070;-51
2024/02/02 06:40:20;;;;;;;0.10;0.10;;;;;;;29.58;32.47;100800.28;7394004;19;20467;-51
2024/02/02 06:42:46;;;;;;;1.30;0.10;;;;;;;29.14;32.97;100786.41;7394046;19;20503;-51
2024/02/02 06:45:12;;;;;;;0.10;0.10;;;;;;;28.18;34.23;100798.44;7393403;19;20031;-51
2024/02/02 06:47:41;;;;;;;2.45;0.43;;;;;;;27.82;34.45;100797.16;7391891;19;20376;-51
2024/02/02 06:50:08;;;;;;;0.20;0.13;;;;;;;27.65;34.60;100794.88;7390896;19;20070;-51
2024/02/02 06:52:35;;;;;;;0.77;0.30;;;;;;;27.49;34.79;100793.34;7390438;19;20015;-51
2024/02/02 06:55:02;;;;;;;0.52;0.45;;;;;;;27.55;35.01;100803.25;7390568;19;20022;-52
2024/02/02 06:57:31;;;;;;;0.20;0.20;;;;;;;27.56;34.53;100810.53;7392662;19;20006;-51
2024/02/02 07:00:00;;;;;;;0.10;0.00;;;;;;;27.72;34.39;100802.72;7389815;19;20013;-51
2024/02/02 07:02:30;;;;;;;0.40;0.25;;;;;;;27.75;34.35;100807.28;7392956;19;20010;-51
2024/02/02 07:04:57;;;;;;;0.17;0.17;;;;;;;28.72;33.87;100804.81;7393286;19;20358;-51
2024/02/02 07:07:24;;;;;;;0.32;0.17;;;;;;;28.00;34.18;100805.38;7392254;19;20021;-51
2024/02/02 07:09:52;;;;;;;0.10;0.10;;;;;;;27.28;34.66;100815.59;7392693;19;20018;-52
2024/02/02 07:12:25;;;;;;;0.20;0.20;;;;;;;29.31;32.57;100805.06;7392440;19;20066;-51
2024/02/02 07:14:51;;;;;;;0.10;0.10;;;;;;;28.72;33.20;100807.69;7391774;19;20772;-51
2024/02/02 07:17:27;;;;;;;1.95;1.17;;;;;;;30.56;31.63;100793.56;7393186;19;20010;-51
2024/02/02 07:19:56;;;;;;;3.10;0.95;;;;;;;32.90;28.90;100799.03;7397363;19;20011;-51
2024/02/02 07:22:34;;;;;;;0.77;0.63;;;;;;;33.28;28.43;100801.06;7400581;19;20135;-51
2024/02/02 07:25:01;;;;;;;1.15;0.20;;;;;;;33.85;27.95;100807.97;7400145;19;20038;-51
2024/02/02 07:27:49;;;;;;;8.48;0.47;;;;;;;33.82;27.70;100807.06;7400027;19;20021;-51
2024/02/02 07:30:33;;;;;;;0.52;0.32;;;;;;;33.66;27.54;100811.72;7403302;19;20007;-51
2024/02/02 07:33:00;;;;;;;0.10;0.10;;;;;;;33.09;28.06;100811.94;7399701;19;20379;-51
2024/02/02 07:35:31;;;;;;;0.10;0.10;;;;;;;33.04;27.57;100815.88;7398967;19;20018;-52
2024/02/02 07:38:03;;;;;;;0.10;0.10;;;;;;;33.02;27.71;100815.75;7399274;19;20019;-51
2024/02/02 07:40:47;;;;;;;0.30;0.25;;;;;;;33.26;28.02;100811.72;7398145;19;20355;-51
2024/02/02 07:43:13;;;;;;;0.30;0.30;;;;;;;33.56;27.48;100814.66;7399874;19;20017;-51
2024/02/02 07:45:39;;;;;;;0.10;0.00;;;;;;;33.85;26.86;100800.03;7399285;19;20038;-51
2024/02/02 07:48:06;;;;;;;0.73;0.73;;;;;;;34.43;26.58;100799.66;7400812;19;20014;-51
2024/02/02 07:50:32;;;;;;;0.10;0.00;;;;;;;34.79;26.13;100796.31;7398986;19;20074;-51
2024/02/02 07:52:58;;;;;;;0.68;0.30;;;;;;;34.85;25.99;100806.13;7399110;19;20018;-51
2024/02/02 08:23:43;;;;;;;0.10;0.10;;;;;;;34.06;31.85;100771.19;7430719;19;20337;-54
2024/02/02 08:26:09;;;;;;;0.20;0.13;;;;;;;34.26;31.79;100766.75;7428129;19;20014;-54
2024/02/02 08:28:38;;;;;;;0.52;0.40;;;;;;;34.44;31.25;100773.00;7425880;19;20013;-53
2024/02/02 08:31:05;;;;;;;0.10;0.10;;;;;;;34.47;30.39;100765.22;7424988;19;20021;-53
2024/02/02 08:33:31;;;;;;;0.68;0.10;;;;;;;34.63;29.87;100760.53;7431808;19;20010;-54
2024/02/02 08:35:57;;;;;;;0.10;0.00;;;;;;;34.54;30.00;100758.47;7426220;19;20027;-53
2024/02/02 08:38:23;;;;;;;0.30;0.30;;;;;;;34.71;29.84;100761.03;7426439;19;20338;-53
2024/02/02 08:40:49;;;;;;;0.10;0.10;;;;;;;34.66;29.67;100754.22;7428595;19;20014;-53
2024/02/02 08:43:22;;;;;;;0.10;0.10;;;;;;;34.69;29.14;100763.81;7430418;19;20011;-54
2024/02/02 08:46:01;;;;;;;0.10;0.10;;;;;;;34.76;28.94;100780.19;7428077;19;20007;-54
2024/02/02 08:48:41;;;;;;;0.10;0.10;;;;;;;35.51;28.41;100777.81;7427860;19;20011;-54
2024/02/02 08:51:22;;;;;;;0.10;0.10;;;;;;;36.00;28.27;100778.66;7427493;19;20010;-54
2024/02/02 08:53:50;;;;;;;0.10;0.10;;;;;;;35.82;27.38;100785.50;7431814;19;20102;-53
2024/02/02 08:56:16;;;;;;;0.10;0.10;;;;;;;36.06;27.66;100784.09;7427125;19;20014;-55
2024/02/02 08:58:42;;;;;;;0.10;0.00;;;;;;;35.80;27.37;100781.06;7426796;19;20026;-55
2024/02/02 09:01:40;;;;;;;0.10;0.10;;;;;;;36.03;27.13;100788.25;7427415;19;20048;-53
2024/02/02 09:04:45;;;;;;;3.60;0.10;;;;;;;36.51;26.67;100788.25;7431344;19;20031;-53
2024/02/02 09:07:25;;;;;;;0.10;0.10;;;;;;;36.33;26.50;100784.25;7426686;19;20404;-55
2024/02/02 09:09:56;;;;;;;0.32;0.30;;;;;;;35.99;27.24;100794.56;7423815;19;20015;-55
2024/02/02 09:12:33;;;;;;;0.10;0.00;;;;;;;36.12;27.00;100784.44;7426389;19;20018;-53
2024/02/02 09:14:59;;;;;;;0.17;0.10;;;;;;;36.03;26.86;100773.75;7429885;19;20015;-55
2024/02/02 09:17:29;;;;;;;0.10;0.10;;;;;;;35.92;27.29;100786.09;7428747;19;20458;-55
2024/02/02 09:19:56;;;;;;;0.10;0.10;;;;;;;36.66;26.67;100781.84;7426433;19;20014;-55
2024/02/02 09:22:22;;;;;;;0.10;0.00;;;;;;;37.39;26.00;100774.34;7424995;19;20011;-55
2024/02/02 09:24:51;;;;;;;0.10;0.10;;;;;;;37.42;25.88;100773.06;7397507;19;20014;-55
2024/02/02 09:27:35;;;;;;;0.77;0.10;;;;;;;37.46;25.49;100773.28;7397758;19;20018;-55
2024/02/02 09:30:17;;;;;;;0.10;0.10;;;;;;;37.73;25.42;100774.03;7397146;19;20058;-55
2024/02/02 09:32:44;;;;;;;0.10;0.10;;;;;;;37.77;25.24;100764.78;7394757;19;20010;-54
2024/02/02 09:35:47;;;;;;;0.30;0.25;;;;;;;37.80;25.30;100754.78;7397807;19;20011;-55
2024/02/02 09:38:14;;;;;;;0.10;0.00;;;;;;;37.57;24.92;100766.59;7398320;19;20015;-53
2024/02/02 09:40:55;;;;;;;0.10;0.10;;;;;;;37.51;25.36;100778.66;7396013;19;20010;-55
2024/02/02 09:43:24;;;;;;;0.10;0.10;;;;;;;37.52;25.12;100776.50;7398975;19;20396;-53
2024/02/02 09:46:02;;;;;;;0.10;0.10;;;;;;;37.52;25.20;100764.88;7397314;19;20518;-55
2024/02/02 09:48:59;;;;;;;0.40;0.10;;;;;;;37.67;25.06;100770.03;7397387;19;20011;-55
2024/02/02 10:07:39;;;;;;;0.77;0.13;;;;;;;38.11;27.11;100771.63;7267251;19;3084069;-53
2024/02/02 10:10:15;;;;;;;0.10;0.10;;;;;;;38.10;26.65;100770.16;7428449;19;20010;-54
2024/02/02 10:13:02;;;;;;;0.10;0.00;;;;;;;38.04;26.35;100779.31;7428569;19;20010;-54
2024/02/02 10:15:46;;;;;;;0.10;0.10;;;;;;;38.23;25.88;100778.81;7429144;19;20018;-54
2024/02/02 10:18:47;;;;;;;0.10;0.00;;;;;;;38.48;25.95;100767.03;7426946;19;20015;-54
2024/02/02 10:21:47;;;;;;;0.13;0.13;;;;;;;38.51;25.56;100762.81;7425689;19;20022;-54
2024/02/02 10:24:35;;;;;;;0.68;0.35;;;;;;;38.62;25.46;100767.72;7428589;19;20484;-54
2024/02/02 10:27:10;;;;;;;0.10;0.10;;;;;;;38.67;24.92;100757.78;7431013;19;20013;-54
2024/02/02 10:29:39;;;;;;;0.10;0.00;;;;;;;38.90;24.92;100755.97;7427753;19;20490;-54
2024/02/02 10:32:50;;;;;;;1.98;0.77;;;;;;;39.02;24.97;100754.38;7429940;19;20021;-53
2024/02/02 10:35:34;;;;;;;0.52;0.10;;;;;;;39.12;24.85;100762.84;7426808;19;20031;-54
2024/02/02 10:38:23;;;;;;;3.28;1.33;;;;;;;38.90;24.96;100773.47;7427343;19;20368;-54
2024/02/02 10:41:01;;;;;;;3.50;0.20;;;;;;;38.67;24.88;100772.34;7424351;19;20007;-53
2024/02/02 10:43:30;;;;;;;0.20;0.20;;;;;;;38.20;25.00;100785.97;7429364;19;20009;-54
2024/02/02 10:46:06;;;;;;;0.25;0.15;;;;;;;37.68;25.38;100786.88;7426861;19;20017;-54
2024/02/02 10:48:44;;;;;;;0.10;0.10;;;;;;;36.82;26.33;100793.66;7426655;19;20018;-54
2024/02/02 10:51:13;;;;;;;0.10;0.10;;;;;;;36.67;26.67;100803.69;7427268;19;20017;-54
2024/02/02 10:54:08;;;;;;;0.10;0.00;;;;;;;36.57;26.66;100803.09;7428744;19;20006;-54
2024/02/02 10:56:46;;;;;;;0.10;0.10;;;;;;;36.71;26.87;100806.81;7423880;19;20454;-54
2024/02/02 10:59:21;;;;;;;0.10;0.10;;;;;;;36.67;26.99;100800.78;7427570;19;20351;-54
2024/02/02 11:02:23;;;;;;;0.40;0.20;;;;;;;37.02;26.58;100795.56;7427132;19;20030;-54
2024/02/02 11:04:55;;;;;;;0.20;0.20;;;;;;;36.76;26.63;100791.13;7424602;19;20053;-55
2024/02/02 11:07:29;;;;;;;0.17;0.17;;;;;;;36.43;27.19;100793.56;7406486;19;20110;-54
2024/02/02 11:09:56;;;;;;;0.20;0.10;;;;;;;36.21;27.19;100795.13;7398462;19;20018;-55
2024/02/02 11:12:26;;;;;;;0.10;0.00;;;;;;;36.24;27.10;100790.94;7396998;19;20018;-54
2024/02/02 11:15:19;;;;;;;0.10;0.10;;;;;;;36.37;27.29;100798.97;7397634;19;20098;-54
2024/02/02 11:18:13;;;;;;;0.10;0.00;;;;;;;36.48;26.87;100792.41;7397482;19;20011;-56
2024/02/02 11:20:51;;;;;;;0.10;0.00;;;;;;;36.52;26.99;100789.75;7398435;19;20021;-54
2024/02/02 11:23:46;;;;;;;0.10;0.10;;;;;;;36.55;27.08;100785.56;7397572;19;20011;-54
2024/02/02 11:26:28;;;;;;;0.15;0.10;;;;;;;36.44;26.91;100786.38;7398867;19;20007;-53
2024/02/02 11:29:48;;;;;;;0.13;0.00;;;;;;;36.50;27.29;100792.53;7396780;19;20038;-55
2024/02/02 11:33:12;;;;;;;0.00;0.00;;;;;;;36.58;27.14;100792.97;7393571;19;20465;-55
2024/02/02 11:36:08;;;;;;;0.10;0.10;;;;;;;36.52;27.32;100789.75;7391616;19;20476;-55
2024/02/02 11:38:59;;;;;;;0.22;0.22;;;;;;;36.70;27.21;100799.50;7395665;19;20015;-54
2024/02/02 11:41:29;;;;;;;0.00;0.00;;;;;;;36.65;27.01;100800.66;7395046;19;20014;-56
2024/02/02 11:43:56;;;;;;;0.10;0.10;;;;;;;36.46;26.87;100801.00;7394995;19;20339;-55
2024/02/02 11:46:25;;;;;;;0.10;0.10;;;;;;;36.54;27.20;100798.56;7395390;19;20011;-55
2024/02/02 11:49:05;;;;;;;0.00;0.00;;;;;;;36.78;27.25;100799.97;7396866;19;20025;-55
2024/02/02 11:51:35;;;;;;;0.10;0.00;;;;;;;36.34;27.52;100794.47;7401275;19;20082;-55
2024/02/02 11:56:51;;;;;;;0.05;0.05;;;;;;;35.91;28.00;100796.19;7396296;19;20244;-55
2024/02/02 11:59:29;;;;;;;0.08;0.00;;;;;;;35.77;27.99;100793.19;7397204;19;20450;-55
2024/02/02 12:02:10;;;;;;;0.95;0.20;;;;;;;35.86;27.66;100774.91;7396361;19;20010;-55
2024/02/02 12:04:56;;;;;;;0.30;0.20;;;;;;;36.13;27.63;100783.78;7394805;19;20438;-55
2024/02/02 12:07:44;;;;;;;0.45;0.10;;;;;;;36.12;27.93;100779.41;7394186;19;20019;-55
2024/02/02 12:10:16;;;;;;;0.10;0.10;;;;;;;36.10;28.10;100778.53;7393412;19;20018;-55
2024/02/02 12:12:56;;;;;;;0.00;0.00;;;;;;;36.91;27.33;100770.25;7396996;19;20017;-55
2024/02/02 12:15:23;;;;;;;0.80;0.10;;;;;;;37.41;26.81;100766.50;7395254;19;20462;-55
2024/02/02 12:17:49;;;;;;;0.00;0.00;;;;;;;37.30;26.66;100766.53;7394828;19;20014;-55
2024/02/02 12:20:22;;;;;;;0.00;0.00;;;;;;;37.47;26.80;100761.00;7394921;19;20108;-54
2024/02/02 12:22:58;;;;;;;0.43;0.10;;;;;;;37.52;26.82;100753.25;7393783;19;20011;-52
2024/02/02 12:25:25;;;;;;;0.20;0.10;;;;;;;37.56;26.54;100759.28;7395905;19;20022;-54
2024/02/02 12:27:51;;;;;;;0.10;0.10;;;;;;;37.46;26.81;100767.47;7396733;19;20561;-53